sensor_id;sensor_type;location;lat;lon;timestamp;temperature;humidity
23301;DHT22;11819;51.394;12.340;2023-03-01T00:01:04;1.40;80.70
23301;DHT22;11819;51.394;12.340;2023-03-01T00:03:30;1.40;80.90
23301;DHT22;11819;51.394;12.340;2023-03-01T00:05:57;1.40;81.10
23301;DHT22;11819;51.394;12.340;2023-03-01T00:08:24;1.40;81.10
23301;DHT22;11819;51.394;12.340;2023-03-01T00:10:49;1.40;81.10
23301;DHT22;11819;51.394;12.340;2023-03-01T00:13:24;1.40;81.10
23301;DHT22;11819;51.394;12.340;2023-03-01T00:15:51;1.30;81.10
23301;DHT22;11819;51.394;12.340;2023-03-01T00:18:17;1.30;81.10
23301;DHT22;11819;51.394;12.340;2023-03-01T00:20:49;1.30;81.20
23301;DHT22;11819;51.394;12.340;2023-03-01T00:23:16;1.30;81.20
23301;DHT22;11819;51.394;12.340;2023-03-01T00:25:43;1.30;81.30
23301;DHT22;11819;51.394;12.340;2023-03-01T00:28:09;1.30;81.30
23301;DHT22;11819;51.394;12.340;2023-03-01T00:30:34;1.30;81.30
23301;DHT22;11819;51.394;12.340;2023-03-01T00:33:00;1.30;81.30
23301;DHT22;11819;51.394;12.340;2023-03-01T00:35:26;1.20;81.30
23301;DHT22;11819;51.394;12.340;2023-03-01T00:37:52;1.20;81.30
23301;DHT22;11819;51.394;12.340;2023-03-01T00:40:27;1.30;81.40
23301;DHT22;11819;51.394;12.340;2023-03-01T00:42:54;1.30;81.40
23301;DHT22;11819;51.394;12.340;2023-03-01T00:45:21;1.30;81.40
23301;DHT22;11819;51.394;12.340;2023-03-01T00:47:48;1.30;81.50
23301;DHT22;11819;51.394;12.340;2023-03-01T00:50:19;1.30;81.40
23301;DHT22;11819;51.394;12.340;2023-03-01T00:52:45;1.20;81.40
23301;DHT22;11819;51.394;12.340;2023-03-01T00:55:11;1.20;81.50
23301;DHT22;11819;51.394;12.340;2023-03-01T00:57:37;1.20;81.50
23301;DHT22;11819;51.394;12.340;2023-03-01T01:00:06;1.10;81.40
23301;DHT22;11819;51.394;12.340;2023-03-01T01:02:33;1.10;81.30
23301;DHT22;11819;51.394;12.340;2023-03-01T01:05:00;1.10;81.30
23301;DHT22;11819;51.394;12.340;2023-03-01T01:07:26;1.10;81.30
23301;DHT22;11819;51.394;12.340;2023-03-01T01:09:51;1.10;81.30
23301;DHT22;11819;51.394;12.340;2023-03-01T01:12:17;1.10;81.30
23301;DHT22;11819;51.394;12.340;2023-03-01T01:14:43;1.10;81.30
23301;DHT22;11819;51.394;12.340;2023-03-01T01:17:08;1.00;81.30
23301;DHT22;11819;51.394;12.340;2023-03-01T01:19:34;1.00;81.40
23301;DHT22;11819;51.394;12.340;2023-03-01T01:22:00;1.10;81.40
23301;DHT22;11819;51.394;12.340;2023-03-01T01:24:26;1.10;81.40
23301;DHT22;11819;51.394;12.340;2023-03-01T01:26:52;1.00;81.30
23301;DHT22;11819;51.394;12.340;2023-03-01T01:29:19;1.00;81.30
23301;DHT22;11819;51.394;12.340;2023-03-01T01:31:46;1.00;81.10
23301;DHT22;11819;51.394;12.340;2023-03-01T01:34:15;1.00;81.00
23301;DHT22;11819;51.394;12.340;2023-03-01T01:36:42;0.90;81.20
23301;DHT22;11819;51.394;12.340;2023-03-01T01:39:08;0.90;81.30
23301;DHT22;11819;51.394;12.340;2023-03-01T01:41:40;0.90;81.40
23301;DHT22;11819;51.394;12.340;2023-03-01T01:44:18;0.90;81.30
23301;DHT22;11819;51.394;12.340;2023-03-01T01:47:00;0.90;81.40
23301;DHT22;11819;51.394;12.340;2023-03-01T01:49:36;0.90;81.40
23301;DHT22;11819;51.394;12.340;2023-03-01T01:52:14;0.90;81.40
23301;DHT22;11819;51.394;12.340;2023-03-01T01:54:50;0.90;81.40
23301;DHT22;11819;51.394;12.340;2023-03-01T01:57:25;0.90;81.50
23301;DHT22;11819;51.394;12.340;2023-03-01T01:59:58;0.80;82.30
23301;DHT22;11819;51.394;12.340;2023-03-01T02:02:25;0.80;81.40
23301;DHT22;11819;51.394;12.340;2023-03-01T02:04:58;0.80;81.40
23301;DHT22;11819;51.394;12.340;2023-03-01T02:07:29;0.80;81.60
23301;DHT22;11819;51.394;12.340;2023-03-01T02:09:56;0.70;81.60
23301;DHT22;11819;51.394;12.340;2023-03-01T02:12:24;0.70;81.80
23301;DHT22;11819;51.394;12.340;2023-03-01T02:14:51;0.70;81.90
23301;DHT22;11819;51.394;12.340;2023-03-01T02:17:17;0.70;82.00
23301;DHT22;11819;51.394;12.340;2023-03-01T02:22:40;0.70;82.50
23301;DHT22;11819;51.394;12.340;2023-03-01T02:25:47;0.60;82.60
23301;DHT22;11819;51.394;12.340;2023-03-01T02:30:44;0.70;82.80
23301;DHT22;11819;51.394;12.340;2023-03-01T02:33:30;0.70;82.90
23301;DHT22;11819;51.394;12.340;2023-03-01T02:36:06;0.70;82.80
23301;DHT22;11819;51.394;12.340;2023-03-01T02:38:35;0.60;82.70
23301;DHT22;11819;51.394;12.340;2023-03-01T02:41:02;0.60;82.70
23301;DHT22;11819;51.394;12.340;2023-03-01T02:43:32;0.60;82.70
23301;DHT22;11819;51.394;12.340;2023-03-01T02:46:07;0.60;82.50
23301;DHT22;11819;51.394;12.340;2023-03-01T02:48:46;0.60;82.50
23301;DHT22;11819;51.394;12.340;2023-03-01T02:51:26;0.60;82.50
23301;DHT22;11819;51.394;12.340;2023-03-01T02:54:22;0.50;82.70
23301;DHT22;11819;51.394;12.340;2023-03-01T02:56:52;0.50;82.80
23301;DHT22;11819;51.394;12.340;2023-03-01T02:59:23;0.50;82.70
23301;DHT22;11819;51.394;12.340;2023-03-01T03:01:50;0.50;82.80
23301;DHT22;11819;51.394;12.340;2023-03-01T03:04:17;0.50;82.80
23301;DHT22;11819;51.394;12.340;2023-03-01T03:06:47;0.50;82.80
23301;DHT22;11819;51.394;12.340;2023-03-01T03:09:14;0.50;82.80
23301;DHT22;11819;51.394;12.340;2023-03-01T03:11:40;0.40;82.60
23301;DHT22;11819;51.394;12.340;2023-03-01T03:14:12;0.40;82.50
23301;DHT22;11819;51.394;12.340;2023-03-01T03:16:48;0.40;82.50
23301;DHT22;11819;51.394;12.340;2023-03-01T03:19:15;0.40;82.60
23301;DHT22;11819;51.394;12.340;2023-03-01T03:21:41;0.40;82.70
23301;DHT22;11819;51.394;12.340;2023-03-01T03:24:08;0.30;82.70
23301;DHT22;11819;51.394;12.340;2023-03-01T03:26:33;0.30;82.70
23301;DHT22;11819;51.394;12.340;2023-03-01T03:28:59;0.30;82.80
23301;DHT22;11819;51.394;12.340;2023-03-01T03:31:25;0.30;82.70
23301;DHT22;11819;51.394;12.340;2023-03-01T03:33:58;0.30;82.80
23301;DHT22;11819;51.394;12.340;2023-03-01T03:36:26;0.20;82.80
23301;DHT22;11819;51.394;12.340;2023-03-01T03:38:52;0.20;82.70
23301;DHT22;11819;51.394;12.340;2023-03-01T03:41:17;0.20;82.90
23301;DHT22;11819;51.394;12.340;2023-03-01T03:43:43;0.20;82.90
23301;DHT22;11819;51.394;12.340;2023-03-01T03:46:11;0.20;83.00
23301;DHT22;11819;51.394;12.340;2023-03-01T03:48:39;0.10;83.00
23301;DHT22;11819;51.394;12.340;2023-03-01T03:51:05;0.20;83.10
23301;DHT22;11819;51.394;12.340;2023-03-01T03:53:32;0.20;83.10
23301;DHT22;11819;51.394;12.340;2023-03-01T03:55:57;0.20;83.10
23301;DHT22;11819;51.394;12.340;2023-03-01T03:58:24;0.20;83.20
23301;DHT22;11819;51.394;12.340;2023-03-01T04:00:56;0.10;83.20
23301;DHT22;11819;51.394;12.340;2023-03-01T04:03:23;0.10;83.20
23301;DHT22;11819;51.394;12.340;2023-03-01T04:05:51;0.10;83.30
23301;DHT22;11819;51.394;12.340;2023-03-01T04:08:18;0.10;83.30
23301;DHT22;11819;51.394;12.340;2023-03-01T04:10:48;0.10;83.40
23301;DHT22;11819;51.394;12.340;2023-03-01T04:13:16;0.10;83.60
23301;DHT22;11819;51.394;12.340;2023-03-01T04:15:42;0.10;83.70
23301;DHT22;11819;51.394;12.340;2023-03-01T04:18:15;0.10;83.70
23301;DHT22;11819;51.394;12.340;2023-03-01T04:20:42;0.10;83.70
23301;DHT22;11819;51.394;12.340;2023-03-01T04:23:16;0.10;83.60
23301;DHT22;11819;51.394;12.340;2023-03-01T04:25:56;0.10;83.70
23301;DHT22;11819;51.394;12.340;2023-03-01T04:28:30;0.00;83.50
23301;DHT22;11819;51.394;12.340;2023-03-01T04:30:57;0.10;83.70
23301;DHT22;11819;51.394;12.340;2023-03-01T04:33:25;0.10;83.60
23301;DHT22;11819;51.394;12.340;2023-03-01T04:35:51;0.00;83.60
23301;DHT22;11819;51.394;12.340;2023-03-01T04:38:18;0.00;83.50
23301;DHT22;11819;51.394;12.340;2023-03-01T04:40:45;0.00;83.60
23301;DHT22;11819;51.394;12.340;2023-03-01T04:43:12;0.00;83.70
23301;DHT22;11819;51.394;12.340;2023-03-01T04:45:40;0.00;83.80
23301;DHT22;11819;51.394;12.340;2023-03-01T04:48:06;0.00;83.90
23301;DHT22;11819;51.394;12.340;2023-03-01T04:50:32;-0.10;83.80
23301;DHT22;11819;51.394;12.340;2023-03-01T04:52:58;-0.10;84.80
23301;DHT22;11819;51.394;12.340;2023-03-01T04:55:28;-0.10;84.10
23301;DHT22;11819;51.394;12.340;2023-03-01T04:57:57;-0.10;84.20
23301;DHT22;11819;51.394;12.340;2023-03-01T05:00:23;-0.10;84.10
23301;DHT22;11819;51.394;12.340;2023-03-01T05:02:54;-0.20;84.20
23301;DHT22;11819;51.394;12.340;2023-03-01T05:05:27;-0.20;84.40
23301;DHT22;11819;51.394;12.340;2023-03-01T05:07:58;-0.20;84.60
23301;DHT22;11819;51.394;12.340;2023-03-01T05:10:25;-0.10;84.70
23301;DHT22;11819;51.394;12.340;2023-03-01T05:12:53;-0.10;84.50
23301;DHT22;11819;51.394;12.340;2023-03-01T05:15:19;-0.10;84.30
23301;DHT22;11819;51.394;12.340;2023-03-01T05:17:47;-0.10;84.20
23301;DHT22;11819;51.394;12.340;2023-03-01T05:20:13;-0.20;83.90
23301;DHT22;11819;51.394;12.340;2023-03-01T05:22:39;-0.20;83.90
23301;DHT22;11819;51.394;12.340;2023-03-01T05:25:05;-0.20;84.00
23301;DHT22;11819;51.394;12.340;2023-03-01T05:27:33;-0.30;84.10
23301;DHT22;11819;51.394;12.340;2023-03-01T05:29:58;-0.30;84.10
23301;DHT22;11819;51.394;12.340;2023-03-01T05:32:24;-0.30;84.10
23301;DHT22;11819;51.394;12.340;2023-03-01T05:34:51;-0.30;84.10
23301;DHT22;11819;51.394;12.340;2023-03-01T05:37:17;-0.30;84.00
23301;DHT22;11819;51.394;12.340;2023-03-01T05:39:43;-0.30;84.00
23301;DHT22;11819;51.394;12.340;2023-03-01T05:42:10;-0.40;84.00
23301;DHT22;11819;51.394;12.340;2023-03-01T05:44:36;-0.40;84.10
23301;DHT22;11819;51.394;12.340;2023-03-01T05:47:02;-0.40;84.00
23301;DHT22;11819;51.394;12.340;2023-03-01T05:49:27;-0.40;84.10
23301;DHT22;11819;51.394;12.340;2023-03-01T05:51:53;-0.40;84.20
23301;DHT22;11819;51.394;12.340;2023-03-01T05:54:21;-0.40;84.20
23301;DHT22;11819;51.394;12.340;2023-03-01T05:56:48;-0.30;84.20
23301;DHT22;11819;51.394;12.340;2023-03-01T05:59:14;-0.30;83.90
23301;DHT22;11819;51.394;12.340;2023-03-01T06:01:41;-0.30;83.90
23301;DHT22;11819;51.394;12.340;2023-03-01T06:04:07;-0.40;83.70
23301;DHT22;11819;51.394;12.340;2023-03-01T06:06:34;-0.40;83.70
23301;DHT22;11819;51.394;12.340;2023-03-01T06:09:00;-0.30;83.90
23301;DHT22;11819;51.394;12.340;2023-03-01T06:11:27;-0.30;83.90
23301;DHT22;11819;51.394;12.340;2023-03-01T06:13:53;-0.30;83.90
23301;DHT22;11819;51.394;12.340;2023-03-01T06:16:19;-0.30;83.80
23301;DHT22;11819;51.394;12.340;2023-03-01T06:18:44;-0.20;83.80
23301;DHT22;11819;51.394;12.340;2023-03-01T06:21:12;-0.20;83.80
23301;DHT22;11819;51.394;12.340;2023-03-01T06:23:38;-0.20;83.80
23301;DHT22;11819;51.394;12.340;2023-03-01T06:26:07;-0.20;83.70
23301;DHT22;11819;51.394;12.340;2023-03-01T06:28:35;-0.20;83.70
23301;DHT22;11819;51.394;12.340;2023-03-01T06:31:01;-0.20;83.70
23301;DHT22;11819;51.394;12.340;2023-03-01T06:33:27;-0.20;83.60
23301;DHT22;11819;51.394;12.340;2023-03-01T06:35:56;-0.20;83.60
23301;DHT22;11819;51.394;12.340;2023-03-01T06:38:22;-0.20;83.60
23301;DHT22;11819;51.394;12.340;2023-03-01T06:40:53;-0.20;84.50
23301;DHT22;11819;51.394;12.340;2023-03-01T06:43:19;-0.20;83.60
23301;DHT22;11819;51.394;12.340;2023-03-01T06:45:45;-0.10;83.70
23301;DHT22;11819;51.394;12.340;2023-03-01T06:48:11;-0.10;83.70
23301;DHT22;11819;51.394;12.340;2023-03-01T06:50:37;-0.10;83.70
23301;DHT22;11819;51.394;12.340;2023-03-01T06:53:03;-0.10;83.80
23301;DHT22;11819;51.394;12.340;2023-03-01T06:55:29;-0.10;83.80
23301;DHT22;11819;51.394;12.340;2023-03-01T06:57:56;-0.10;83.90
23301;DHT22;11819;51.394;12.340;2023-03-01T07:00:22;-0.10;84.00
23301;DHT22;11819;51.394;12.340;2023-03-01T07:02:48;0.00;84.40
23301;DHT22;11819;51.394;12.340;2023-03-01T07:05:15;0.10;84.70
23301;DHT22;11819;51.394;12.340;2023-03-01T07:07:40;0.20;84.70
23301;DHT22;11819;51.394;12.340;2023-03-01T07:10:08;0.30;84.80
23301;DHT22;11819;51.394;12.340;2023-03-01T07:12:35;0.40;84.70
23301;DHT22;11819;51.394;12.340;2023-03-01T07:15:00;0.40;84.70
23301;DHT22;11819;51.394;12.340;2023-03-01T07:17:26;0.50;84.50
23301;DHT22;11819;51.394;12.340;2023-03-01T07:19:52;0.60;84.50
23301;DHT22;11819;51.394;12.340;2023-03-01T07:22:17;0.60;84.50
23301;DHT22;11819;51.394;12.340;2023-03-01T07:24:43;0.70;84.50
23301;DHT22;11819;51.394;12.340;2023-03-01T07:27:09;0.70;84.50
23301;DHT22;11819;51.394;12.340;2023-03-01T07:29:35;0.80;84.50
23301;DHT22;11819;51.394;12.340;2023-03-01T07:32:05;0.80;84.70
23301;DHT22;11819;51.394;12.340;2023-03-01T07:34:31;0.80;84.50
23301;DHT22;11819;51.394;12.340;2023-03-01T07:36:56;0.90;84.70
23301;DHT22;11819;51.394;12.340;2023-03-01T07:39:22;1.00;84.70
23301;DHT22;11819;51.394;12.340;2023-03-01T07:41:51;1.00;84.60
23301;DHT22;11819;51.394;12.340;2023-03-01T07:44:20;1.10;84.50
23301;DHT22;11819;51.394;12.340;2023-03-01T07:46:46;1.20;84.40
23301;DHT22;11819;51.394;12.340;2023-03-01T07:49:12;1.20;84.40
23301;DHT22;11819;51.394;12.340;2023-03-01T07:51:38;1.30;84.40
23301;DHT22;11819;51.394;12.340;2023-03-01T07:54:04;1.40;84.40
23301;DHT22;11819;51.394;12.340;2023-03-01T07:56:29;1.40;84.20
23301;DHT22;11819;51.394;12.340;2023-03-01T07:58:55;1.50;84.80
23301;DHT22;11819;51.394;12.340;2023-03-01T08:01:21;1.50;83.80
23301;DHT22;11819;51.394;12.340;2023-03-01T08:03:47;1.60;83.70
23301;DHT22;11819;51.394;12.340;2023-03-01T08:06:15;1.70;83.60
23301;DHT22;11819;51.394;12.340;2023-03-01T08:08:41;1.70;83.50
23301;DHT22;11819;51.394;12.340;2023-03-01T08:11:09;1.80;83.50
23301;DHT22;11819;51.394;12.340;2023-03-01T08:13:35;1.90;83.40
23301;DHT22;11819;51.394;12.340;2023-03-01T08:16:05;1.90;83.10
23301;DHT22;11819;51.394;12.340;2023-03-01T08:18:32;2.00;82.90
23301;DHT22;11819;51.394;12.340;2023-03-01T08:21:13;2.00;82.60
23301;DHT22;11819;51.394;12.340;2023-03-01T08:23:40;2.10;82.30
23301;DHT22;11819;51.394;12.340;2023-03-01T08:26:14;2.20;82.20
23301;DHT22;11819;51.394;12.340;2023-03-01T08:28:41;2.30;82.00
23301;DHT22;11819;51.394;12.340;2023-03-01T08:31:30;2.30;81.50
23301;DHT22;11819;51.394;12.340;2023-03-01T08:33:58;2.40;81.10
23301;DHT22;11819;51.394;12.340;2023-03-01T08:36:33;2.50;81.10
23301;DHT22;11819;51.394;12.340;2023-03-01T08:39:01;2.50;80.80
23301;DHT22;11819;51.394;12.340;2023-03-01T08:41:27;2.60;80.80
23301;DHT22;11819;51.394;12.340;2023-03-01T08:43:53;2.60;80.80
23301;DHT22;11819;51.394;12.340;2023-03-01T08:46:25;2.70;80.70
23301;DHT22;11819;51.394;12.340;2023-03-01T08:48:52;2.70;80.70
23301;DHT22;11819;51.394;12.340;2023-03-01T08:51:21;2.70;80.60
23301;DHT22;11819;51.394;12.340;2023-03-01T08:53:48;2.70;80.70
23301;DHT22;11819;51.394;12.340;2023-03-01T08:56:14;2.70;80.60
23301;DHT22;11819;51.394;12.340;2023-03-01T08:58:40;2.80;80.60
23301;DHT22;11819;51.394;12.340;2023-03-01T09:01:10;2.80;80.60
23301;DHT22;11819;51.394;12.340;2023-03-01T09:03:36;2.80;80.60
23301;DHT22;11819;51.394;12.340;2023-03-01T09:06:03;2.90;80.60
23301;DHT22;11819;51.394;12.340;2023-03-01T09:08:30;2.90;80.60
23301;DHT22;11819;51.394;12.340;2023-03-01T09:10:56;2.90;80.50
23301;DHT22;11819;51.394;12.340;2023-03-01T09:13:22;2.90;80.60
23301;DHT22;11819;51.394;12.340;2023-03-01T09:15:52;2.90;80.60
23301;DHT22;11819;51.394;12.340;2023-03-01T09:18:18;3.00;80.70
23301;DHT22;11819;51.394;12.340;2023-03-01T09:20:43;3.00;80.80
23301;DHT22;11819;51.394;12.340;2023-03-01T09:23:09;3.10;80.50
23301;DHT22;11819;51.394;12.340;2023-03-01T09:25:35;3.20;80.20
23301;DHT22;11819;51.394;12.340;2023-03-01T09:28:02;3.20;79.80
23301;DHT22;11819;51.394;12.340;2023-03-01T09:30:28;3.30;79.60
23301;DHT22;11819;51.394;12.340;2023-03-01T09:32:56;3.30;79.40
23301;DHT22;11819;51.394;12.340;2023-03-01T09:35:22;3.30;79.30
23301;DHT22;11819;51.394;12.340;2023-03-01T09:37:49;3.40;79.20
23301;DHT22;11819;51.394;12.340;2023-03-01T09:40:23;3.40;78.90
23301;DHT22;11819;51.394;12.340;2023-03-01T09:45:27;3.40;78.50
23301;DHT22;11819;51.394;12.340;2023-03-01T09:47:55;3.40;78.20
23301;DHT22;11819;51.394;12.340;2023-03-01T09:50:22;3.40;77.90
23301;DHT22;11819;51.394;12.340;2023-03-01T09:53:09;3.50;77.80
23301;DHT22;11819;51.394;12.340;2023-03-01T09:56:02;3.50;77.80
23301;DHT22;11819;51.394;12.340;2023-03-01T09:58:54;3.50;77.70
23301;DHT22;11819;51.394;12.340;2023-03-01T10:04:04;3.60;77.80
23301;DHT22;11819;51.394;12.340;2023-03-01T10:06:32;3.60;77.70
23301;DHT22;11819;51.394;12.340;2023-03-01T10:09:05;3.60;77.70
23301;DHT22;11819;51.394;12.340;2023-03-01T10:11:38;3.60;77.40
23301;DHT22;11819;51.394;12.340;2023-03-01T10:14:34;3.60;77.30
23301;DHT22;11819;51.394;12.340;2023-03-01T10:17:03;3.70;77.30
23301;DHT22;11819;51.394;12.340;2023-03-01T10:19:40;3.80;77.40
23301;DHT22;11819;51.394;12.340;2023-03-01T10:22:21;3.80;77.60
23301;DHT22;11819;51.394;12.340;2023-03-01T10:24:49;3.80;77.50
23301;DHT22;11819;51.394;12.340;2023-03-01T10:27:26;3.80;77.50
23301;DHT22;11819;51.394;12.340;2023-03-01T10:30:17;3.80;77.40
23301;DHT22;11819;51.394;12.340;2023-03-01T10:32:46;3.80;77.30
23301;DHT22;11819;51.394;12.340;2023-03-01T10:38:04;3.90;77.10
23301;DHT22;11819;51.394;12.340;2023-03-01T10:40:31;3.90;77.00
23301;DHT22;11819;51.394;12.340;2023-03-01T10:42:59;3.90;76.30
23301;DHT22;11819;51.394;12.340;2023-03-01T10:48:17;4.00;75.90
23301;DHT22;11819;51.394;12.340;2023-03-01T10:51:05;3.90;75.30
23301;DHT22;11819;51.394;12.340;2023-03-01T10:53:37;4.00;75.10
23301;DHT22;11819;51.394;12.340;2023-03-01T10:58:33;4.00;74.80
23301;DHT22;11819;51.394;12.340;2023-03-01T11:01:01;4.00;74.60
23301;DHT22;11819;51.394;12.340;2023-03-01T11:03:34;4.10;74.60
23301;DHT22;11819;51.394;12.340;2023-03-01T11:06:12;4.10;74.40
23301;DHT22;11819;51.394;12.340;2023-03-01T11:08:46;4.10;74.30
23301;DHT22;11819;51.394;12.340;2023-03-01T11:16:34;4.10;73.40
23301;DHT22;11819;51.394;12.340;2023-03-01T11:21:50;4.20;73.30
23301;DHT22;11819;51.394;12.340;2023-03-01T11:24:17;4.20;73.30
23301;DHT22;11819;51.394;12.340;2023-03-01T11:26:53;4.30;73.00
23301;DHT22;11819;51.394;12.340;2023-03-01T11:29:39;4.30;72.50
23301;DHT22;11819;51.394;12.340;2023-03-01T11:32:08;4.30;72.70
23301;DHT22;11819;51.394;12.340;2023-03-01T11:34:40;4.40;72.90
23301;DHT22;11819;51.394;12.340;2023-03-01T11:40:27;4.50;72.90
23301;DHT22;11819;51.394;12.340;2023-03-01T11:43:19;4.50;72.90
23301;DHT22;11819;51.394;12.340;2023-03-01T11:45:58;4.60;72.80
23301;DHT22;11819;51.394;12.340;2023-03-01T11:54:09;4.80;72.20
23301;DHT22;11819;51.394;12.340;2023-03-01T11:56:43;4.80;71.00
23301;DHT22;11819;51.394;12.340;2023-03-01T11:59:39;4.90;70.50
23301;DHT22;11819;51.394;12.340;2023-03-01T12:02:28;4.90;70.20
23301;DHT22;11819;51.394;12.340;2023-03-01T12:05:30;5.00;69.20
23301;DHT22;11819;51.394;12.340;2023-03-01T12:08:24;5.00;68.10
23301;DHT22;11819;51.394;12.340;2023-03-01T12:30:39;5.30;68.50
23301;DHT22;11819;51.394;12.340;2023-03-01T12:36:13;5.50;68.20
23301;DHT22;11819;51.394;12.340;2023-03-01T12:38:50;5.60;68.40
23301;DHT22;11819;51.394;12.340;2023-03-01T12:50:13;5.70;67.90
23301;DHT22;11819;51.394;12.340;2023-03-01T12:52:54;5.80;68.00
23301;DHT22;11819;51.394;12.340;2023-03-01T12:55:39;5.80;68.20
23301;DHT22;11819;51.394;12.340;2023-03-01T13:01:05;6.00;67.80
23301;DHT22;11819;51.394;12.340;2023-03-01T13:12:03;6.20;67.10
23301;DHT22;11819;51.394;12.340;2023-03-01T13:16:58;6.40;66.80
23301;DHT22;11819;51.394;12.340;2023-03-01T13:19:26;6.60;66.60
23301;DHT22;11819;51.394;12.340;2023-03-01T13:21:58;7.00;65.90
23301;DHT22;11819;51.394;12.340;2023-03-01T13:24:40;7.60;63.70
23301;DHT22;11819;51.394;12.340;2023-03-01T13:27:11;8.20;60.30
23301;DHT22;11819;51.394;12.340;2023-03-01T13:29:59;8.90;59.20
23301;DHT22;11819;51.394;12.340;2023-03-01T13:32:32;9.50;57.60
23301;DHT22;11819;51.394;12.340;2023-03-01T13:35:41;10.00;56.00
23301;DHT22;11819;51.394;12.340;2023-03-01T13:37:48;10.40;54.20
23301;DHT22;11819;51.394;12.340;2023-03-01T13:45:34;11.30;51.40
23301;DHT22;11819;51.394;12.340;2023-03-01T13:48:22;11.60;50.60
23301;DHT22;11819;51.394;12.340;2023-03-01T13:50:54;11.70;49.10
23301;DHT22;11819;51.394;12.340;2023-03-01T13:53:24;11.90;49.80
23301;DHT22;11819;51.394;12.340;2023-03-01T13:56:16;12.20;49.00
23301;DHT22;11819;51.394;12.340;2023-03-01T13:59:01;12.40;47.10
23301;DHT22;11819;51.394;12.340;2023-03-01T14:01:32;12.60;45.50
23301;DHT22;11819;51.394;12.340;2023-03-01T14:04:00;12.90;46.20
23301;DHT22;11819;51.394;12.340;2023-03-01T14:06:28;13.20;45.90
23301;DHT22;11819;51.394;12.340;2023-03-01T14:09:16;13.50;45.30
23301;DHT22;11819;51.394;12.340;2023-03-01T14:17:18;13.70;42.90
23301;DHT22;11819;51.394;12.340;2023-03-01T14:19:48;13.90;43.50
23301;DHT22;11819;51.394;12.340;2023-03-01T14:22:32;14.00;42.90
23301;DHT22;11819;51.394;12.340;2023-03-01T14:25:02;14.00;43.30
23301;DHT22;11819;51.394;12.340;2023-03-01T14:27:38;14.10;43.40
23301;DHT22;11819;51.394;12.340;2023-03-01T14:33:16;14.40;44.60
23301;DHT22;11819;51.394;12.340;2023-03-01T14:35:59;14.50;41.50
23301;DHT22;11819;51.394;12.340;2023-03-01T14:41:06;14.60;42.20
23301;DHT22;11819;51.394;12.340;2023-03-01T14:43:33;14.80;41.70
23301;DHT22;11819;51.394;12.340;2023-03-01T14:46:01;14.70;41.00
23301;DHT22;11819;51.394;12.340;2023-03-01T14:48:28;14.20;40.80
23301;DHT22;11819;51.394;12.340;2023-03-01T14:50:54;13.20;41.80
23301;DHT22;11819;51.394;12.340;2023-03-01T14:53:26;12.30;43.40
23301;DHT22;11819;51.394;12.340;2023-03-01T14:55:56;11.60;45.00
23301;DHT22;11819;51.394;12.340;2023-03-01T14:58:25;11.00;46.50
23301;DHT22;11819;51.394;12.340;2023-03-01T15:01:00;10.60;47.10
23301;DHT22;11819;51.394;12.340;2023-03-01T15:03:35;10.20;47.50
23301;DHT22;11819;51.394;12.340;2023-03-01T15:06:04;9.80;48.50
23301;DHT22;11819;51.394;12.340;2023-03-01T15:08:31;9.60;48.90
23301;DHT22;11819;51.394;12.340;2023-03-01T15:11:15;9.50;49.40
23301;DHT22;11819;51.394;12.340;2023-03-01T15:13:42;9.40;49.50
23301;DHT22;11819;51.394;12.340;2023-03-01T15:16:12;9.30;49.70
23301;DHT22;11819;51.394;12.340;2023-03-01T15:19:15;9.10;49.90
23301;DHT22;11819;51.394;12.340;2023-03-01T15:21:44;8.90;50.40
23301;DHT22;11819;51.394;12.340;2023-03-01T15:29:24;8.60;51.80
23301;DHT22;11819;51.394;12.340;2023-03-01T15:32:22;8.50;51.80
23301;DHT22;11819;51.394;12.340;2023-03-01T15:34:49;8.40;51.80
23301;DHT22;11819;51.394;12.340;2023-03-01T15:37:53;8.40;52.10
23301;DHT22;11819;51.394;12.340;2023-03-01T15:40:27;8.20;51.80
23301;DHT22;11819;51.394;12.340;2023-03-01T15:43:05;8.10;51.50
23301;DHT22;11819;51.394;12.340;2023-03-01T15:45:32;8.00;51.80
23301;DHT22;11819;51.394;12.340;2023-03-01T15:48:15;8.00;52.00
23301;DHT22;11819;51.394;12.340;2023-03-01T15:50:42;7.90;51.90
23301;DHT22;11819;51.394;12.340;2023-03-01T15:53:14;7.90;52.20
23301;DHT22;11819;51.394;12.340;2023-03-01T15:55:41;7.90;52.60
23301;DHT22;11819;51.394;12.340;2023-03-01T15:58:13;7.80;52.60
23301;DHT22;11819;51.394;12.340;2023-03-01T16:00:41;7.80;52.70
23301;DHT22;11819;51.394;12.340;2023-03-01T16:03:08;7.80;52.80
23301;DHT22;11819;51.394;12.340;2023-03-01T16:05:35;7.80;53.00
23301;DHT22;11819;51.394;12.340;2023-03-01T16:08:02;7.70;52.90
23301;DHT22;11819;51.394;12.340;2023-03-01T16:10:27;7.70;52.90
23301;DHT22;11819;51.394;12.340;2023-03-01T16:12:53;7.70;53.10
23301;DHT22;11819;51.394;12.340;2023-03-01T16:15:27;7.60;53.30
23301;DHT22;11819;51.394;12.340;2023-03-01T16:17:53;7.60;53.40
23301;DHT22;11819;51.394;12.340;2023-03-01T16:20:24;7.50;53.60
23301;DHT22;11819;51.394;12.340;2023-03-01T16:22:50;7.50;53.80
23301;DHT22;11819;51.394;12.340;2023-03-01T16:25:17;7.50;54.10
23301;DHT22;11819;51.394;12.340;2023-03-01T16:27:47;7.40;54.50
23301;DHT22;11819;51.394;12.340;2023-03-01T16:30:15;7.30;54.60
23301;DHT22;11819;51.394;12.340;2023-03-01T16:32:43;7.30;54.90
23301;DHT22;11819;51.394;12.340;2023-03-01T16:35:10;7.20;55.00
23301;DHT22;11819;51.394;12.340;2023-03-01T16:37:38;7.10;55.10
23301;DHT22;11819;51.394;12.340;2023-03-01T16:40:05;7.10;55.20
23301;DHT22;11819;51.394;12.340;2023-03-01T16:42:34;7.00;55.80
23301;DHT22;11819;51.394;12.340;2023-03-01T16:45:05;6.90;56.40
23301;DHT22;11819;51.394;12.340;2023-03-01T16:47:33;6.80;57.10
23301;DHT22;11819;51.394;12.340;2023-03-01T16:50:00;6.70;57.70
23301;DHT22;11819;51.394;12.340;2023-03-01T16:52:26;6.60;58.20
23301;DHT22;11819;51.394;12.340;2023-03-01T16:54:52;6.60;58.60
23301;DHT22;11819;51.394;12.340;2023-03-01T16:57:18;6.60;58.90
23301;DHT22;11819;51.394;12.340;2023-03-01T16:59:44;6.50;59.10
23301;DHT22;11819;51.394;12.340;2023-03-01T17:02:14;6.40;59.30
23301;DHT22;11819;51.394;12.340;2023-03-01T17:04:45;6.50;59.30
23301;DHT22;11819;51.394;12.340;2023-03-01T17:07:14;6.40;59.30
23301;DHT22;11819;51.394;12.340;2023-03-01T17:09:39;6.30;59.30
23301;DHT22;11819;51.394;12.340;2023-03-01T17:12:05;6.30;59.40
23301;DHT22;11819;51.394;12.340;2023-03-01T17:14:31;6.20;59.70
23301;DHT22;11819;51.394;12.340;2023-03-01T17:16:57;6.10;59.90
23301;DHT22;11819;51.394;12.340;2023-03-01T17:19:23;6.00;61.50
23301;DHT22;11819;51.394;12.340;2023-03-01T17:21:49;5.90;61.50
23301;DHT22;11819;51.394;12.340;2023-03-01T17:24:15;5.80;62.10
23301;DHT22;11819;51.394;12.340;2023-03-01T17:26:41;5.80;62.60
23301;DHT22;11819;51.394;12.340;2023-03-01T17:29:06;5.70;62.90